This is the latest recevied weather packets stored in our database for station/object OE-11331. If no packets are shown the sender has not sent any weather packets the latest 10 day(s).
| Time | Temp. | Humidity | Pressure | Rain* | Wind** | Luminosity | Snow |
|---|---|---|---|---|---|---|---|
| 1788125135 | 18.89° C | 78% | 1015.8 hPa | 0 mm | - | 0 W/m² | - |
| 1788124546 | 19.44° C | 76% | 1015.8 hPa | 0 mm | - | 0 W/m² | - |
| 1788123934 | 19.44° C | 75% | 1015.7 hPa | 0 mm | - | 0 W/m² | - |
| 1788123335 | 19.44° C | 74% | 1015.7 hPa | 0 mm | - | 0 W/m² | - |
| 1788122508 | 20° C | 74% | 1015.6 hPa | 0 mm | - | 0 W/m² | - |
| 1788122134 | 20° C | 73% | 1015.6 hPa | 0 mm | - | 0 W/m² | - |
| 1788121534 | 20° C | 73% | 1015.5 hPa | 0 mm | - | 0 W/m² | - |
| 1788120708 | 20.56° C | 72% | 1015.4 hPa | 0 mm | - | 0 W/m² | - |
| 1788120335 | 20.56° C | 69% | 1015.2 hPa | 0 mm | - | 0 W/m² | - |
| 1788119735 | 21.11° C | 69% | 1015 hPa | 0 mm | - | 0 W/m² | - |
| 1788118908 | 21.67° C | 67% | 1015 hPa | 0 mm | - | 0 W/m² | - |
| 1788118535 | 21.67° C | 66% | 1014.8 hPa | 0 mm | - | 0 W/m² | - |
| 1788117935 | 21.67° C | 66% | 1014.7 hPa | 0 mm | - | 0 W/m² | - |
| 1788117107 | 22.22° C | 68% | 1014.6 hPa | 0 mm | - | 0 W/m² | - |
| 1788116734 | 22.22° C | 65% | 1014.5 hPa | 0 mm | - | 0 W/m² | - |
| 1788116134 | 22.78° C | 62% | 1014.3 hPa | 0 mm | - | 0 W/m² | - |
| 1788115307 | 23.33° C | 58% | 1014 hPa | 0 mm | - | 0 W/m² | - |
| 1788114933 | 23.33° C | 62% | 1013.8 hPa | 0 mm | - | 0 W/m² | - |
| 1788114334 | 23.89° C | 61% | 1013.7 hPa | 0 mm | - | 0 W/m² | - |
| 1788113507 | 25° C | 55% | 1013.3 hPa | 0 mm | - | 0 W/m² | - |
| 1788113134 | 25° C | 54% | 1013.1 hPa | 0 mm | - | 11 W/m² | - |
| 1788112534 | 26.11° C | 53% | 1013 hPa | 0 mm | - | 11 W/m² | - |
| 1788111946 | 26.11° C | 52% | 1012.8 hPa | 0 mm | - | 22 W/m² | - |
| 1788111334 | 26.11° C | 51% | 1012.8 hPa | 0 mm | - | 22 W/m² | - |
| 1788110734 | 28.33° C | 42% | 1012.5 hPa | 0 mm | - | 43 W/m² | - |
* Rain latest hour (hover to see other rain measurements)
** Current wind speed in m/s (hover to see current wind gust speed)